Time;durP1;ratioP1;P1;durP2;ratioP2;P2;SDS_P1;SDS_P2;PMS_P1;PMS_P2;Temp;Humidity;BMP_temperature;BMP_pressure;BME280_temperature;BME280_humidity;BME280_pressure;Samples;Min_cycle;Max_cycle;Signal;HPM_P1;HPM_P2
2021/12/11 09:04:43;;;;;;;114.47;44.50;;;-1.30;99.90;;;;;;5111059;27;20389;-61
2021/12/11 09:07:30;;;;;;;121.03;48.20;;;-1.20;99.90;;;;;;5110033;28;20063;-62
2021/12/11 09:10:10;;;;;;;133.18;51.22;;;-1.20;99.90;;;;;;5100917;28;20139;-62
2021/12/11 09:12:41;;;;;;;105.23;48.73;;;-1.20;99.90;;;;;;5079459;28;20133;-62
2021/12/11 09:15:07;;;;;;;117.57;48.50;;;-1.20;99.90;;;;;;5081561;28;20067;-62
2021/12/11 09:17:44;;;;;;;120.38;47.40;;;-1.10;99.90;;;;;;5078807;28;20076;-60
2021/12/11 09:20:17;;;;;;;179.00;48.67;;;-1.00;99.90;;;;;;5071277;28;20052;-61
2021/12/11 09:22:48;;;;;;;137.23;45.80;;;-1.00;99.90;;;;;;5070684;28;20064;-62
2021/12/11 09:25:25;;;;;;;93.60;41.13;;;-0.90;99.90;;;;;;5072170;28;20143;-61
2021/12/11 09:28:36;;;;;;;113.23;39.53;;;-0.90;99.90;;;;;;5080663;28;20091;-61
2021/12/11 09:31:14;;;;;;;111.93;38.67;;;-0.90;99.90;;;;;;5073416;28;20088;-62
2021/12/11 09:33:49;;;;;;;83.50;36.27;;;-0.90;99.90;;;;;;5083754;28;20060;-61
2021/12/11 09:36:22;;;;;;;86.03;34.67;;;-0.90;99.90;;;;;;5081251;28;20052;-62
2021/12/11 09:38:53;;;;;;;89.20;34.73;;;-0.80;99.90;;;;;;5080085;28;20119;-62
2021/12/11 09:41:22;;;;;;;99.73;32.70;;;-0.80;99.90;;;;;;5080746;28;20044;-63
2021/12/11 09:44:02;;;;;;;56.10;30.97;;;-0.90;99.90;;;;;;5087674;28;20047;-62
2021/12/11 09:46:33;;;;;;;74.37;31.97;;;-0.90;99.90;;;;;;5089599;28;20063;-62
2021/12/11 09:49:01;;;;;;;54.97;29.37;;;-0.80;99.90;;;;;;5091093;28;20375;-63
2021/12/11 09:51:33;;;;;;;72.13;30.20;;;-0.80;99.90;;;;;;5090360;28;20387;-62
2021/12/11 09:54:03;;;;;;;67.27;31.20;;;-0.80;99.90;;;;;;5090242;28;20056;-62
2021/12/11 09:56:36;;;;;;;56.17;30.80;;;-0.70;99.90;;;;;;5083698;28;20102;-63
2021/12/11 09:59:06;;;;;;;66.23;30.70;;;-0.70;99.90;;;;;;5080299;28;20055;-62
2021/12/11 10:01:37;;;;;;;63.13;29.43;;;-0.70;99.90;;;;;;5079598;28;20044;-63
2021/12/11 10:04:19;;;;;;;60.47;29.63;;;-0.60;99.90;;;;;;5067381;28;20055;-62
2021/12/11 10:09:34;;;;;;;63.53;29.57;;;-0.60;99.90;;;;;;5069014;28;20063;-63
2021/12/11 10:12:07;;;;;;;67.77;29.47;;;-0.60;99.90;;;;;;5068407;28;20451;-62
2021/12/11 10:14:40;;;;;;;62.70;29.23;;;-0.50;99.90;;;;;;5064122;28;20065;-63
2021/12/11 10:17:12;;;;;;;52.43;27.67;;;0.30;99.90;;;;;;5057108;28;20346;-61
2021/12/11 10:19:39;;;;;;;56.43;29.00;;;-0.50;99.90;;;;;;5055987;28;20445;-62
2021/12/11 10:22:24;;;;;;;54.70;28.00;;;-0.40;99.90;;;;;;5056140;28;20548;-63
2021/12/11 10:24:52;;;;;;;69.00;28.27;;;-0.40;99.90;;;;;;5056883;28;20080;-62
2021/12/11 10:27:21;;;;;;;53.80;27.57;;;-0.30;99.90;;;;;;5054916;28;20075;-61
2021/12/11 10:29:49;;;;;;;64.60;30.00;;;-0.30;99.90;;;;;;5056080;28;20088;-61
2021/12/11 10:32:21;;;;;;;47.40;27.17;;;-0.30;99.90;;;;;;5055841;28;20052;-61
2021/12/11 10:34:51;;;;;;;48.67;26.53;;;-0.20;99.90;;;;;;5056139;28;20049;-62
2021/12/11 10:37:24;;;;;;;53.30;28.73;;;-0.20;99.90;;;;;;5055081;28;20071;-62
2021/12/11 10:39:52;;;;;;;53.70;29.00;;;0.30;99.90;;;;;;5055757;28;20056;-61
2021/12/11 10:42:18;;;;;;;50.53;28.10;;;0.40;99.90;;;;;;5055822;28;20108;-62
2021/12/11 10:44:48;;;;;;;53.38;30.45;;;0.00;99.90;;;;;;5055861;28;20064;-62
2021/12/11 10:47:21;;;;;;;48.60;27.97;;;0.00;99.90;;;;;;5056551;28;20377;-62
2021/12/11 10:49:48;;;;;;;46.10;28.13;;;0.00;99.90;;;;;;5056206;28;20378;-63
2021/12/11 10:52:19;;;;;;;50.10;27.53;;;0.10;99.90;;;;;;5056227;28;20053;-63
2021/12/11 10:54:46;;;;;;;47.17;26.65;;;0.20;99.90;;;;;;5055023;28;20051;-61
2021/12/11 10:57:13;;;;;;;46.10;26.27;;;0.20;99.90;;;;;;5054642;28;20052;-61
2021/12/11 10:59:44;;;;;;;48.00;26.83;;;0.30;99.90;;;;;;5054364;28;20044;-62
2021/12/11 11:02:15;;;;;;;46.47;25.98;;;0.30;99.90;;;;;;5054707;28;20067;-62
2021/12/11 11:05:05;;;;;;;48.40;27.87;;;0.40;99.90;;;;;;5054792;28;20163;-62
2021/12/11 11:07:31;;;;;;;50.08;27.48;;;0.40;99.90;;;;;;5065452;28;20048;-61
2021/12/11 11:09:59;;;;;;;48.50;26.88;;;0.50;99.90;;;;;;5063824;28;20064;-61
2021/12/11 11:12:27;;;;;;;47.60;27.40;;;0.50;99.90;;;;;;5065475;28;20099;-61
2021/12/11 11:14:54;;;;;;;52.13;27.58;;;0.60;99.90;;;;;;5065410;28;20045;-64
2021/12/11 11:17:27;;;;;;;48.50;27.37;;;0.70;99.90;;;;;;5058019;28;20060;-62
2021/12/11 11:19:55;;;;;;;48.83;26.77;;;0.70;99.90;;;;;;5055134;28;20096;-61
2021/12/11 11:22:24;;;;;;;50.22;28.20;;;0.70;99.90;;;;;;5057240;28;20551;-62
2021/12/11 11:24:55;;;;;;;50.23;28.53;;;0.80;99.90;;;;;;5073889;28;20369;-61
2021/12/11 11:27:21;;;;;;;51.28;30.80;;;0.80;99.90;;;;;;5074971;28;20431;-63
2021/12/11 11:29:48;;;;;;;54.50;31.27;;;0.90;99.90;;;;;;5074933;28;20076;-62
2021/12/11 11:32:21;;;;;;;58.28;32.40;;;0.90;99.90;;;;;;5074023;28;20131;-62
2021/12/11 11:34:47;;;;;;;50.05;28.48;;;1.60;99.90;;;;;;5075839;28;20055;-63
2021/12/11 11:37:19;;;;;;;50.85;28.83;;;1.30;99.90;;;;;;5063429;28;20052;-63
2021/12/11 11:39:47;;;;;;;47.25;27.33;;;1.00;99.90;;;;;;5065374;28;20072;-62
2021/12/11 11:42:17;;;;;;;46.50;27.50;;;1.00;99.90;;;;;;5063552;28;20548;-63
2021/12/11 11:44:45;;;;;;;45.83;27.90;;;1.00;99.90;;;;;;5062232;28;20040;-64
2021/12/11 11:47:13;;;;;;;56.05;29.42;;;1.00;99.90;;;;;;5063618;28;20044;-62
2021/12/11 11:49:40;;;;;;;51.63;27.50;;;1.00;99.90;;;;;;5053564;28;20049;-61
2021/12/11 11:52:18;;;;;;;60.47;32.45;;;1.20;99.90;;;;;;5055043;28;20091;-61
2021/12/11 11:54:47;;;;;;;55.15;29.60;;;1.10;99.90;;;;;;5054831;28;20053;-60
2021/12/11 11:57:17;;;;;;;61.10;31.88;;;1.10;99.90;;;;;;5054480;28;20135;-61
2021/12/11 11:59:43;;;;;;;60.78;31.00;;;1.10;99.90;;;;;;5054104;28;20052;-62
2021/12/11 12:02:12;;;;;;;58.40;30.75;;;1.10;99.90;;;;;;5054192;28;20037;-60
2021/12/11 12:04:40;;;;;;;63.15;32.35;;;1.20;99.90;;;;;;5054815;28;20068;-60
2021/12/11 12:07:07;;;;;;;60.85;31.30;;;1.30;99.90;;;;;;5053947;28;20523;-61
2021/12/11 12:09:41;;;;;;;58.97;31.15;;;1.30;99.90;;;;;;5054280;28;20114;-62
2021/12/11 12:12:09;;;;;;;57.80;33.50;;;1.40;99.90;;;;;;5064630;28;20053;-61
2021/12/11 12:14:35;;;;;;;60.45;31.38;;;1.50;99.90;;;;;;5065936;28;20119;-61
2021/12/11 12:17:02;;;;;;;56.40;34.90;;;1.60;99.90;;;;;;5065246;28;20044;-62
2021/12/11 12:19:28;;;;;;;62.47;37.88;;;1.50;99.90;;;;;;5064586;28;20055;-62
2021/12/11 12:21:57;;;;;;;;;;;1.50;99.90;;;;;;5074378;28;20045;-61
2021/12/11 12:24:25;;;;;;;106.55;65.72;;;1.60;99.90;;;;;;5057994;28;20302;-63
2021/12/11 12:26:51;;;;;;;80.20;43.22;;;1.60;99.90;;;;;;5053988;28;20051;-63
2021/12/11 12:29:19;;;;;;;72.38;43.05;;;1.70;99.90;;;;;;5053466;28;20120;-62
2021/12/11 12:31:51;;;;;;;70.70;39.58;;;1.80;99.90;;;;;;5058501;28;20040;-63
2021/12/11 12:34:18;;;;;;;72.45;38.00;;;1.90;99.90;;;;;;5074724;28;20091;-62
2021/12/11 12:36:45;;;;;;;70.18;38.00;;;2.00;99.90;;;;;;5073695;28;20497;-62
2021/12/11 12:39:13;;;;;;;60.58;32.20;;;2.00;99.90;;;;;;5073767;28;20055;-62
2021/12/11 12:42:15;;;;;;;69.93;36.83;;;2.10;99.90;;;;;;5061311;28;20055;-62
2021/12/11 12:44:42;;;;;;;57.72;34.25;;;2.20;99.90;;;;;;5053714;28;20045;-61
2021/12/11 12:47:17;;;;;;;59.65;31.60;;;2.30;99.90;;;;;;5052471;28;20040;-63
2021/12/11 12:49:46;;;;;;;73.05;44.90;;;2.30;99.90;;;;;;5051970;28;20064;-61
2021/12/11 12:52:18;;;;;;;56.47;34.88;;;2.30;99.90;;;;;;5052903;28;20083;-61
2021/12/11 12:54:44;;;;;;;77.60;50.25;;;2.40;99.90;;;;;;5052314;28;20061;-63
2021/12/11 12:57:19;;;;;;;66.18;40.45;;;2.50;99.90;;;;;;5053281;28;20517;-62
2021/12/11 13:00:08;;;;;;;68.63;39.05;;;2.50;99.90;;;;;;5054382;28;20043;-63
2021/12/11 13:02:36;;;;;;;148.65;90.75;;;2.60;99.90;;;;;;5053775;28;20052;-62
2021/12/11 13:05:20;;;;;;;75.63;45.63;;;2.70;99.90;;;;;;5054143;28;20080;-62
2021/12/11 13:07:48;;;;;;;60.30;34.22;;;2.70;99.90;;;;;;5052547;28;20124;-63
2021/12/11 13:10:26;;;;;;;60.47;30.88;;;2.80;99.90;;;;;;5052431;28;20045;-62
2021/12/11 13:12:52;;;;;;;49.42;28.20;;;2.80;99.90;;;;;;5053743;28;20049;-62
2021/12/11 13:15:24;;;;;;;52.03;28.27;;;2.80;99.90;;;;;;5053368;28;20127;-62
2021/12/11 13:17:51;;;;;;;47.33;27.52;;;2.80;99.90;;;;;;5053319;28;20059;-62
2021/12/11 13:20:35;;;;;;;49.13;26.98;;;2.80;99.90;;;;;;5052293;28;20045;-62
2021/12/11 13:23:01;;;;;;;44.58;26.23;;;2.80;99.90;;;;;;5053629;28;20033;-62
2021/12/11 13:25:56;;;;;;;44.67;26.83;;;2.70;99.90;;;;;;5057583;28;20116;-62
2021/12/11 13:28:24;;;;;;;55.72;26.42;;;2.70;99.90;;;;;;5061906;28;20131;-62
2021/12/11 13:30:57;;;;;;;50.60;27.33;;;2.70;99.90;;;;;;5062740;28;20052;-62
2021/12/11 13:33:25;;;;;;;43.25;26.45;;;2.70;99.90;;;;;;5062899;28;20052;-63
2021/12/11 13:35:55;;;;;;;45.55;27.52;;;2.70;99.90;;;;;;5062929;28;20098;-62
2021/12/11 13:38:24;;;;;;;47.13;27.67;;;2.70;99.90;;;;;;5063787;28;20044;-62
2021/12/11 13:41:00;;;;;;;45.78;25.88;;;2.70;99.90;;;;;;5062646;28;20524;-62
2021/12/11 13:43:28;;;;;;;50.60;28.88;;;2.70;99.90;;;;;;5063815;28;20040;-62
2021/12/11 13:45:56;;;;;;;44.00;25.98;;;2.70;99.90;;;;;;5062432;28;20373;-62
2021/12/11 13:48:23;;;;;;;48.15;26.42;;;2.70;99.90;;;;;;5062575;28;20178;-62
2021/12/11 13:50:58;;;;;;;55.72;26.40;;;2.80;99.90;;;;;;5064982;28;20123;-62
2021/12/11 13:53:25;;;;;;;56.67;27.55;;;2.80;99.90;;;;;;5067505;28;20106;-63
2021/12/11 13:55:53;;;;;;;50.92;27.42;;;2.80;99.90;;;;;;5067383;28;20084;-62
2021/12/11 13:58:19;;;;;;;52.78;28.13;;;2.80;99.90;;;;;;5067451;28;20045;-62
2021/12/11 14:00:50;;;;;;;55.67;28.10;;;2.90;99.90;;;;;;5066653;28;20476;-63
2021/12/11 14:03:19;;;;;;;52.58;27.27;;;2.90;99.90;;;;;;5064994;28;20045;-62
2021/12/11 14:05:49;;;;;;;50.55;27.17;;;3.00;99.90;;;;;;5065942;28;20078;-63
2021/12/11 14:08:16;;;;;;;55.17;27.25;;;3.10;99.90;;;;;;5067158;28;20041;-63
2021/12/11 14:10:43;;;;;;;50.92;25.92;;;3.10;99.90;;;;;;5065796;28;20116;-61
2021/12/11 14:13:11;;;;;;;48.42;26.38;;;3.10;99.90;;;;;;5064230;28;20042;-62
2021/12/11 14:15:39;;;;;;;49.75;26.23;;;3.10;99.90;;;;;;5067003;28;20449;-62
2021/12/11 14:18:06;;;;;;;54.83;27.60;;;3.50;99.90;;;;;;5065185;28;20056;-62
2021/12/11 14:20:34;;;;;;;49.53;25.40;;;4.10;99.90;;;;;;5064838;28;20124;-62
2021/12/11 14:23:04;;;;;;;43.53;24.70;;;3.20;99.90;;;;;;5066061;28;20551;-62
2021/12/11 14:25:32;;;;;;;48.75;25.70;;;3.20;99.90;;;;;;5065795;28;20049;-61
2021/12/11 14:28:00;;;;;;;43.95;25.10;;;3.20;99.90;;;;;;5067500;28;20041;-61
2021/12/11 14:30:26;;;;;;;48.45;26.05;;;3.30;99.90;;;;;;5065432;28;20111;-62
2021/12/11 14:32:54;;;;;;;43.05;24.70;;;3.30;99.90;;;;;;5066668;28;20099;-62
2021/12/11 14:35:24;;;;;;;45.17;25.55;;;3.60;99.90;;;;;;5065091;28;20171;-62
2021/12/11 14:37:50;;;;;;;44.45;25.33;;;3.30;99.90;;;;;;5063901;28;20056;-61
2021/12/11 14:40:18;;;;;;;44.47;25.73;;;3.30;99.90;;;;;;5065452;28;20045;-63
2021/12/11 14:42:45;;;;;;;42.17;24.13;;;3.40;99.90;;;;;;5065422;28;20037;-62
2021/12/11 14:45:16;;;;;;;;;;;3.30;99.90;;;;;;5065007;28;20045;-62
2021/12/11 14:47:43;;;;;;;45.47;23.77;;;3.30;99.90;;;;;;5066886;28;19974;-63
2021/12/11 14:50:11;;;;;;;45.13;25.33;;;3.20;99.90;;;;;;5065924;28;20049;-61
2021/12/11 14:52:38;;;;;;;40.83;25.63;;;3.20;99.90;;;;;;5066365;28;20032;-61
2021/12/11 14:55:11;;;;;;;50.85;25.63;;;3.20;99.90;;;;;;5064114;28;20076;-63
2021/12/11 14:57:37;;;;;;;48.20;28.05;;;3.10;99.90;;;;;;5065486;28;20091;-63
2021/12/11 15:00:10;;;;;;;47.65;26.20;;;3.10;99.90;;;;;;5064939;28;20188;-61
2021/12/11 15:02:38;;;;;;;40.63;24.80;;;3.00;99.90;;;;;;5062749;28;20141;-61
2021/12/11 15:05:28;;;;;;;47.50;25.65;;;3.00;99.90;;;;;;5064273;28;20087;-61
2021/12/11 15:07:57;;;;;;;47.00;25.42;;;2.90;99.90;;;;;;5065174;28;20036;-62
2021/12/11 15:10:29;;;;;;;46.50;26.42;;;2.90;99.90;;;;;;5064474;28;20048;-62
2021/12/11 15:12:55;;;;;;;47.95;27.08;;;2.90;99.90;;;;;;5069936;28;20036;-61
2021/12/11 15:15:22;;;;;;;50.95;28.98;;;2.90;99.90;;;;;;5075411;28;20087;-62
2021/12/11 15:17:48;;;;;;;50.13;29.63;;;2.80;99.90;;;;;;5076113;28;20048;-62
2021/12/11 15:20:23;;;;;;;51.17;28.77;;;2.80;99.90;;;;;;5073069;28;20551;-62
2021/12/11 15:22:49;;;;;;;49.13;27.73;;;3.30;99.90;;;;;;5075798;28;20045;-62
2021/12/11 15:25:18;;;;;;;45.03;27.40;;;2.90;99.90;;;;;;5074179;28;20055;-62
2021/12/11 15:27:44;;;;;;;50.50;27.25;;;2.90;99.90;;;;;;5075110;28;20136;-62
2021/12/11 15:30:17;;;;;;;44.70;27.77;;;2.80;99.90;;;;;;5074934;28;20043;-62
2021/12/11 15:32:44;;;;;;;53.15;27.38;;;2.80;99.90;;;;;;5056473;28;20505;-63
2021/12/11 15:35:15;;;;;;;46.63;26.00;;;2.90;99.90;;;;;;5055540;28;20048;-62
2021/12/11 15:37:41;;;;;;;42.85;24.80;;;3.80;99.90;;;;;;5060090;28;20052;-62
2021/12/11 15:40:11;;;;;;;;;;;2.70;99.90;;;;;;5064861;28;20045;-62
2021/12/11 15:42:37;;;;;;;44.42;23.08;;;2.70;99.90;;;;;;5063043;28;19966;-62
2021/12/11 15:45:05;;;;;;;47.15;24.35;;;3.10;99.90;;;;;;5064788;28;20044;-61
2021/12/11 15:47:32;;;;;;;45.42;23.75;;;2.70;99.90;;;;;;5059689;28;20139;-62
2021/12/11 15:49:59;;;;;;;39.28;23.40;;;2.60;99.90;;;;;;5065585;28;20503;-62
2021/12/11 15:52:26;;;;;;;45.92;24.33;;;2.60;99.90;;;;;;5074360;28;20048;-60
2021/12/11 15:54:52;;;;;;;48.70;26.08;;;2.60;99.90;;;;;;5070999;28;20199;-64
2021/12/11 15:57:19;;;;;;;46.75;25.77;;;2.60;99.90;;;;;;5085453;28;20400;-61
2021/12/11 15:59:48;;;;;;;50.65;27.52;;;3.20;99.90;;;;;;5094428;28;20062;-62
2021/12/11 16:02:15;;;;;;;53.97;28.67;;;2.70;99.90;;;;;;5079692;28;20487;-62
2021/12/11 16:04:41;;;;;;;56.67;32.17;;;2.50;99.90;;;;;;5074526;28;20056;-62
2021/12/11 16:07:09;;;;;;;59.47;35.88;;;2.50;99.90;;;;;;5073676;28;20043;-62
2021/12/11 16:09:37;;;;;;;61.40;33.60;;;2.50;99.90;;;;;;5073927;28;20055;-62
2021/12/11 16:12:08;;;;;;;59.90;32.00;;;4.10;99.90;;;;;;5073507;28;20045;-63
2021/12/11 16:14:37;;;;;;;52.20;30.63;;;2.40;99.90;;;;;;5073981;28;20071;-62
2021/12/11 16:17:05;;;;;;;53.05;28.80;;;2.40;99.90;;;;;;5070783;28;20048;-61
2021/12/11 16:19:34;;;;;;;47.17;26.25;;;2.40;99.90;;;;;;5059310;28;20044;-61
2021/12/11 16:22:08;;;;;;;53.85;27.83;;;2.30;99.90;;;;;;5053419;28;20493;-62
2021/12/11 16:24:37;;;;;;;51.72;27.38;;;2.40;99.90;;;;;;5065213;28;20048;-63
2021/12/11 16:27:05;;;;;;;51.97;27.90;;;2.30;99.90;;;;;;5073785;28;20214;-63
2021/12/11 16:29:31;;;;;;;51.55;30.38;;;2.40;99.90;;;;;;5073278;28;20101;-62
2021/12/11 16:31:59;;;;;;;54.20;28.27;;;2.70;99.90;;;;;;5074447;28;20476;-63
2021/12/11 16:34:24;;;;;;;63.10;29.20;;;2.30;99.90;;;;;;5072905;28;20494;-64
2021/12/11 16:36:53;;;;;;;57.60;29.30;;;2.30;99.90;;;;;;5063264;28;20049;-61
2021/12/11 16:39:21;;;;;;;56.25;30.58;;;2.30;99.90;;;;;;5073599;28;20055;-62
2021/12/11 16:41:55;;;;;;;60.45;29.25;;;2.30;99.90;;;;;;5073602;28;20131;-62
2021/12/11 16:44:25;;;;;;;57.55;30.35;;;3.30;99.90;;;;;;5073854;28;20086;-63
2021/12/11 16:46:55;;;;;;;61.67;30.45;;;2.30;99.90;;;;;;5072515;28;20055;-62
2021/12/11 16:49:24;;;;;;;56.90;29.95;;;2.20;99.90;;;;;;5072833;28;20503;-63
2021/12/11 16:51:52;;;;;;;59.80;29.15;;;2.30;99.90;;;;;;5062764;28;20488;-62
2021/12/11 16:54:19;;;;;;;58.17;30.05;;;3.50;99.90;;;;;;5073488;28;20052;-62
2021/12/11 16:56:45;;;;;;;60.33;30.15;;;2.30;99.90;;;;;;5062710;28;20106;-62
2021/12/11 16:59:14;;;;;;;64.50;31.00;;;2.30;99.90;;;;;;5052584;28;20045;-63
2021/12/11 17:01:42;;;;;;;59.75;31.70;;;2.40;99.90;;;;;;5053425;28;20128;-62
2021/12/11 17:04:08;;;;;;;55.70;30.02;;;3.30;99.90;;;;;;5053514;28;20056;-62
2021/12/11 17:06:40;;;;;;;56.75;28.17;;;2.30;99.90;;;;;;5053525;28;20404;-62
2021/12/11 17:09:09;;;;;;;53.38;28.25;;;2.30;99.90;;;;;;5053566;28;20170;-63
2021/12/11 17:11:35;;;;;;;54.83;28.48;;;2.30;99.90;;;;;;5062792;28;20436;-62
2021/12/11 17:14:01;;;;;;;;;;;2.30;99.90;;;;;;5071158;28;20076;-61
2021/12/11 17:16:28;;;;;;;49.17;26.50;;;2.30;99.90;;;;;;5063585;28;19979;-62
2021/12/11 17:18:56;;;;;;;39.28;25.95;;;2.20;99.90;;;;;;5060220;28;20059;-63
2021/12/11 17:21:27;;;;;;;47.35;25.92;;;2.20;99.90;;;;;;5064382;28;20064;-62
2021/12/11 17:23:54;;;;;;;46.35;27.50;;;2.20;99.90;;;;;;5071344;28;20427;-62
2021/12/11 17:26:21;;;;;;;45.63;25.65;;;2.20;99.90;;;;;;5063551;28;20048;-62
2021/12/11 17:29:00;;;;;;;47.38;25.85;;;2.10;99.90;;;;;;5066490;28;20442;-61
2021/12/11 17:31:26;;;;;;;43.75;24.63;;;2.10;99.90;;;;;;5067984;28;20072;-63
2021/12/11 17:33:54;;;;;;;45.70;24.15;;;2.10;99.90;;;;;;5066955;28;20529;-61
2021/12/11 17:36:23;;;;;;;43.92;23.48;;;2.10;99.90;;;;;;5065746;28;20045;-62
2021/12/11 17:38:50;;;;;;;43.45;22.10;;;2.10;99.90;;;;;;5058049;28;20486;-62
2021/12/11 17:41:17;;;;;;;38.08;22.27;;;2.00;99.90;;;;;;5057594;28;20053;-62
2021/12/11 17:43:44;;;;;;;36.17;22.40;;;2.00;99.90;;;;;;5057220;28;20041;-62
2021/12/11 17:46:16;;;;;;;40.40;22.60;;;1.90;99.90;;;;;;5056319;28;20071;-62
2021/12/11 17:48:42;;;;;;;46.03;23.92;;;1.70;99.90;;;;;;5054000;28;20511;-61
2021/12/11 17:51:10;;;;;;;50.38;24.20;;;1.80;99.90;;;;;;5055092;28;20073;-61
2021/12/11 17:53:37;;;;;;;46.40;26.23;;;1.90;99.90;;;;;;5056774;28;20041;-63
2021/12/11 17:56:05;;;;;;;57.95;26.23;;;1.80;99.90;;;;;;5056882;28;20099;-61
2021/12/11 17:58:36;;;;;;;46.28;23.85;;;2.00;99.90;;;;;;5060367;28;20401;-62
2021/12/11 18:01:20;;;;;;;49.28;24.02;;;2.70;99.90;;;;;;5068680;28;20437;-63
2021/12/11 18:03:51;;;;;;;42.03;22.63;;;1.80;99.90;;;;;;5068908;28;20149;-62
2021/12/11 18:06:21;;;;;;;41.08;22.35;;;1.80;99.90;;;;;;5059579;28;20488;-62
2021/12/11 18:08:48;;;;;;;42.80;22.65;;;1.80;99.90;;;;;;5076566;28;20083;-62
2021/12/11 18:11:16;;;;;;;38.72;22.05;;;1.70;99.90;;;;;;5076521;28;20059;-63
2021/12/11 18:13:48;;;;;;;37.20;20.48;;;1.80;99.90;;;;;;5075497;28;20059;-62
2021/12/11 18:16:22;;;;;;;41.13;22.85;;;1.80;99.90;;;;;;5076818;28;20052;-62
2021/12/11 18:18:59;;;;;;;46.95;23.15;;;1.90;99.90;;;;;;5076689;28;20133;-62
2021/12/11 18:21:32;;;;;;;42.30;24.02;;;1.80;99.90;;;;;;5065769;28;20048;-62
2021/12/11 18:23:58;;;;;;;50.38;23.90;;;1.70;99.90;;;;;;5069578;28;20064;-62
2021/12/11 18:26:30;;;;;;;43.67;22.83;;;1.80;99.90;;;;;;5067330;28;20060;-62
2021/12/11 18:28:56;;;;;;;44.13;22.90;;;;;;;;;;5065881;28;20041;-62
2021/12/11 18:31:25;;;;;;;;;;;1.80;99.90;;;;;;5065398;28;20048;-61
2021/12/11 18:33:53;;;;;;;47.20;23.77;;;1.80;99.90;;;;;;5064988;28;19927;-61
2021/12/11 18:36:27;;;;;;;51.97;23.42;;;1.80;99.90;;;;;;5065259;28;20052;-62
2021/12/11 18:38:53;;;;;;;42.33;21.90;;;;;;;;;;5066653;28;20037;-63
2021/12/11 18:41:27;;;;;;;43.05;21.05;;;1.80;99.90;;;;;;5064497;28;20048;-62
2021/12/11 18:43:56;;;;;;;40.33;21.23;;;1.80;99.90;;;;;;5064652;28;20044;-62
2021/12/11 18:46:48;;;;;;;45.53;20.95;;;1.90;99.90;;;;;;5066172;28;20094;-62
2021/12/11 18:49:30;;;;;;;40.85;21.65;;;1.90;99.90;;;;;;5066808;28;20041;-61
2021/12/11 18:52:10;;;;;;;35.90;19.50;;;1.80;99.90;;;;;;5066281;28;20045;-62
2021/12/11 18:54:41;;;;;;;42.85;22.40;;;1.90;99.90;;;;;;5065317;28;20131;-61
2021/12/11 18:57:15;;;;;;;43.03;21.02;;;1.90;99.90;;;;;;5067038;28;20039;-62
2021/12/11 18:59:42;;;;;;;39.83;21.17;;;3.50;99.90;;;;;;5066293;28;20117;-61
2021/12/11 19:02:08;;;;;;;40.92;20.90;;;;;;;;;;5063806;28;20055;-62
2021/12/11 19:04:39;;;;;;;51.50;28.25;;;1.90;99.90;;;;;;5070985;28;20168;-62
2021/12/11 19:07:10;;;;;;;42.03;21.50;;;2.00;99.90;;;;;;5105990;28;20087;-62
2021/12/11 19:09:36;;;;;;;41.08;22.42;;;4.00;99.90;;;;;;5073763;28;20052;-61
2021/12/11 19:12:15;;;;;;;41.28;22.50;;;2.00;99.90;;;;;;5074329;28;20542;-62
2021/12/11 19:14:45;;;;;;;44.00;22.63;;;2.10;99.90;;;;;;5075257;28;20106;-62
2021/12/11 19:17:12;;;;;;;37.03;22.17;;;2.10;99.90;;;;;;5074868;28;20405;-64
2021/12/11 19:19:40;;;;;;;38.25;22.45;;;2.10;99.90;;;;;;5075871;28;20044;-63
2021/12/11 19:22:10;;;;;;;46.47;22.88;;;2.10;99.90;;;;;;5075093;28;20048;-62
2021/12/11 19:24:37;;;;;;;39.13;22.45;;;2.10;99.90;;;;;;5073555;28;20041;-63
2021/12/11 19:27:05;;;;;;;44.08;23.83;;;2.10;99.90;;;;;;5074823;28;20500;-64
2021/12/11 19:29:36;;;;;;;42.35;22.65;;;2.10;99.90;;;;;;5075042;28;20049;-62
2021/12/11 19:32:05;;;;;;;38.70;22.77;;;2.20;99.90;;;;;;5075026;28;20128;-61
2021/12/11 19:34:31;;;;;;;44.85;25.00;;;2.20;99.90;;;;;;5073978;28;20052;-61
2021/12/11 19:36:58;;;;;;;48.17;25.05;;;2.20;99.90;;;;;;5074907;28;20044;-61
2021/12/11 19:39:31;;;;;;;45.97;23.92;;;2.40;99.90;;;;;;5074815;28;20048;-61
2021/12/11 19:41:57;;;;;;;43.00;23.85;;;2.20;99.90;;;;;;5075312;28;20045;-61
2021/12/11 19:44:25;;;;;;;43.78;22.20;;;2.80;99.90;;;;;;5074934;28;20070;-62
2021/12/11 19:46:52;;;;;;;51.00;24.15;;;2.30;99.90;;;;;;5073905;28;20040;-61
2021/12/11 19:49:19;;;;;;;41.90;22.50;;;2.30;99.90;;;;;;5074638;28;20496;-61
2021/12/11 19:51:48;;;;;;;43.60;24.67;;;2.30;99.90;;;;;;5075098;28;20495;-62
2021/12/11 19:54:19;;;;;;;47.38;25.10;;;2.40;99.90;;;;;;5074559;28;20037;-62
2021/12/11 19:57:06;;;;;;;44.58;23.67;;;2.40;99.90;;;;;;5074312;28;20576;-64
2021/12/11 19:59:42;;;;;;;46.97;23.10;;;2.40;99.90;;;;;;5074114;28;20480;-69
2021/12/11 20:02:16;;;;;;;37.33;21.48;;;2.40;99.90;;;;;;5074351;28;20041;-61
2021/12/11 20:04:43;;;;;;;39.67;21.73;;;2.50;99.90;;;;;;5073208;28;20048;-62
2021/12/11 20:07:10;;;;;;;41.42;21.67;;;2.50;99.90;;;;;;5073374;28;20090;-61
2021/12/11 20:09:41;;;;;;;38.90;21.02;;;2.50;99.90;;;;;;5073729;28;20480;-61
2021/12/11 20:12:28;;;;;;;42.45;21.90;;;2.50;99.90;;;;;;5061609;28;20084;-61
2021/12/11 20:14:57;;;;;;;42.00;21.80;;;2.50;99.90;;;;;;5071552;28;20105;-62
2021/12/11 20:17:36;;;;;;;44.17;21.17;;;2.50;99.90;;;;;;5059687;28;20432;-61
2021/12/11 20:20:07;;;;;;;40.20;22.02;;;2.60;99.90;;;;;;5054775;28;20045;-61
2021/12/11 20:22:33;;;;;;;44.38;21.15;;;2.60;99.90;;;;;;5053831;28;20165;-63
2021/12/11 20:25:00;;;;;;;34.70;20.58;;;2.60;99.90;;;;;;5053082;28;20064;-61
2021/12/11 20:27:30;;;;;;;39.47;20.58;;;2.60;99.90;;;;;;5052985;28;20542;-61
2021/12/11 20:30:20;;;;;;;33.55;19.70;;;2.60;99.90;;;;;;5054582;28;20045;-61
2021/12/11 20:32:47;;;;;;;40.70;21.45;;;3.00;99.90;;;;;;5064534;28;20037;-62
2021/12/11 20:35:16;;;;;;;39.85;21.42;;;2.60;99.90;;;;;;5064450;28;20041;-62
2021/12/11 20:37:42;;;;;;;38.67;21.75;;;2.70;99.90;;;;;;5063238;28;20127;-61
2021/12/11 20:40:40;;;;;;;42.15;24.80;;;2.70;99.90;;;;;;5062724;28;20171;-62
2021/12/11 20:43:07;;;;;;;43.50;23.73;;;2.70;99.90;;;;;;5063782;28;20091;-62
2021/12/11 20:45:39;;;;;;;45.90;23.80;;;2.80;99.90;;;;;;5062141;28;20047;-62
2021/12/11 20:48:06;;;;;;;41.00;22.40;;;2.70;99.90;;;;;;5062782;28;20098;-62
2021/12/11 20:50:36;;;;;;;44.67;22.75;;;3.00;99.90;;;;;;5067125;28;20160;-62
2021/12/11 20:53:03;;;;;;;38.42;22.70;;;2.70;99.90;;;;;;5073597;28;20115;-62
2021/12/11 20:55:30;;;;;;;;;;;3.30;99.90;;;;;;5066697;28;20055;-62
2021/12/11 20:57:58;;;;;;;44.60;23.75;;;2.80;99.90;;;;;;5053237;28;19974;-61
2021/12/11 21:00:31;;;;;;;76.10;42.70;;;3.70;99.90;;;;;;5060788;28;20056;-62
